Airfield :
LOGIN :

Register | Disclaimer

   EN    FR    IT 

 










Legend :    VFR   Marginal VFR   IFR   Intensive IFR   Very Intensive IFR
Visi :
Ceiling :
>= 8 km
>= 3000ft
5 to 8 km
1000 to 3000 ft
1500m to 5 km
500 to 1000 ft
800 to 1500m
200 to 500 ft
< 800m
< 200 ft
Symbols :   Thunderstorms  Fog  Heavy snow  Heavy precipitations  Wind > 20 kt
SIGMETs :     Misc.  Thunderstorms  Icing  Turbulence  Mountain Waves  Volcanic Ashes






- Airport Elevation : 1470 ft


LSMD - Dubendorf Military

CURRENT METAR :
  • 290650Z 12001KT 9999 FEW009 BKN012 OVC037 06/05 Q1015 RMK GRN

EXPIRED METARs :
  • 290620Z 13002KT 9999 SCT010 BKN015 OVC037 06/05 Q1015 RMK WHT
  • 290550Z 14002KT 9999 FEW010 BKN033 06/05 Q1015 RMK BLU
  • 290520Z AUTO VRB01KT 9999NDV SCT006 BKN028 OVC033 06/05 Q1015 RMK
  • 290450Z AUTO 00000KT 9999NDV -SHRA SCT005 BKN026 OVC031 06/05 Q1015 RMK
  • 290420Z AUTO VRB02KT 9999NDV FEW012 SCT025 OVC030 06/05 Q1015 RMK

Expired Forecast.



MET'MAP, your aeronautical weather chart ! - Copyright ORBIFLY December 2007 - Disclaimer

ORBIFLY MET'MAP TEAM :

Programming & Development : Alexandra Zaïnal
Original concept : Baudouin d'Aumeries
Technical & hardware support : Manuel Goepfert
Assistance : Marc-Olivier Méhu




SOURCES & CREDITS :

   NOAA